Terminal Aerodrome Forecast
Issued by NWS Tuscon, AZ

Home | Current Version | Previous Version | Text Only | Print | Product List | Glossary On
Versions: 1 2 3 4 5 6 7 8 9 10 11 12 13 14 15 16
821
FTUS45 KTWC 232332
TAFDUG
TAF
KDUG 232332Z 2400/2424 19009KT P6SM VCTS SCT050CB BKN100
     FM240200 15007KT P6SM SCT060 BKN120
     FM241000 VRB04KT P6SM FEW060 BKN150
     FM241800 21007KT P6SM VCSH SCT060 BKN120=

USA.gov is the U.S. government's official web portal to all federal, state and local government web resources and services.